KPF27KM LOWW-LOWS
Flight info
| Callsign | KPF27KM |
|---|---|
| Flight time | 0h 32m |
| Altitude | 16000 |
| Route | SOVIL2B/16 SOVIL DCT SITNI DCT BAGSI DCT MATIG MATIG2R |
| Aircraft | CL60/M-SBDE1E2E3FGHIJ1J4J5J7M3RWXYZ/LB1V1D1 |
Departure
| Time | 2026-05-04 18:03 |
|---|---|
| Airport | Vienna International Airport (LOWW) |
Arrival
| Time | 2026-05-04 18:36 |
|---|---|
| Airport | Salzburg Airport (LOWS) |
| Time | Latitude | Longitude | Altitude | Speed | Heading |
|---|---|---|---|---|---|
| 2026-05-04 17:38 | 48.12823 | 16.53923 | 606 ft | 0 kts | 295° |
| 2026-05-04 17:59 | 48.12830 | 16.53900 | 607 ft | 5 kts | 295° |
| 2026-05-04 17:59 | 48.12848 | 16.53722 | 607 ft | 14 kts | 247° |
| 2026-05-04 18:00 | 48.12764 | 16.53591 | 607 ft | 19 kts | 206° |
| 2026-05-04 18:00 | 48.12687 | 16.53546 | 607 ft | 7 kts | 176° |
| 2026-05-04 18:00 | 48.12621 | 16.53551 | 607 ft | 12 kts | 207° |
| 2026-05-04 18:00 | 48.12544 | 16.53499 | 607 ft | 8 kts | 189° |
| 2026-05-04 18:01 | 48.12512 | 16.53500 | 607 ft | 1 kts | 177° |
| 2026-05-04 18:01 | 48.12471 | 16.53491 | 607 ft | 9 kts | 203° |
| 2026-05-04 18:01 | 48.12407 | 16.53443 | 607 ft | 7 kts | 205° |
| 2026-05-04 18:02 | 48.12386 | 16.53428 | 607 ft | 3 kts | 205° |
| 2026-05-04 18:02 | 48.12313 | 16.53379 | 607 ft | 14 kts | 197° |
| 2026-05-04 18:02 | 48.12239 | 16.53465 | 607 ft | 15 kts | 116° |
| 2026-05-04 18:02 | 48.12219 | 16.53527 | 607 ft | 0 kts | 115° |
| 2026-05-04 18:03 | 48.12166 | 16.53688 | 607 ft | 58 kts | 116° |
| 2026-05-04 18:03 | 48.11824 | 16.54735 | 614 ft | 157 kts | 115° |
| 2026-05-04 18:03 | 48.11343 | 16.56386 | 1380 ft | 185 kts | 116° |
| 2026-05-04 18:03 | 48.10820 | 16.58102 | 2655 ft | 190 kts | 121° |
| 2026-05-04 18:04 | 48.10219 | 16.59887 | 3756 ft | 205 kts | 121° |
| 2026-05-04 18:04 | 48.09557 | 16.61857 | 4548 ft | 218 kts | 121° |
| 2026-05-04 18:04 | 48.07556 | 16.65664 | 6114 ft | 260 kts | 157° |
| 2026-05-04 18:05 | 48.05792 | 16.66244 | 7200 ft | 273 kts | 184° |
| 2026-05-04 18:05 | 48.03983 | 16.65385 | 7780 ft | 277 kts | 214° |
| 2026-05-04 18:05 | 48.02742 | 16.63192 | 7997 ft | 278 kts | 245° |
| 2026-05-04 18:05 | 48.02454 | 16.60347 | 8026 ft | 280 kts | 269° |
| 2026-05-04 18:06 | 48.02623 | 16.54536 | 8020 ft | 278 kts | 269° |
| 2026-05-04 18:06 | 48.02667 | 16.51636 | 8012 ft | 281 kts | 268° |
| 2026-05-04 18:06 | 48.02677 | 16.48562 | 8680 ft | 306 kts | 268° |
| 2026-05-04 18:07 | 48.02690 | 16.45491 | 10402 ft | 300 kts | 268° |
| 2026-05-04 18:07 | 48.02699 | 16.42322 | 11415 ft | 319 kts | 268° |
| 2026-05-04 18:07 | 48.02706 | 16.38893 | 12223 ft | 342 kts | 269° |
| 2026-05-04 18:07 | 48.02714 | 16.35299 | 13292 ft | 354 kts | 268° |
| 2026-05-04 18:08 | 48.02722 | 16.31609 | 14488 ft | 361 kts | 268° |
| 2026-05-04 18:08 | 48.02728 | 16.27787 | 15392 ft | 372 kts | 268° |
| 2026-05-04 18:08 | 48.02752 | 16.23953 | 15805 ft | 376 kts | 269° |
| 2026-05-04 18:08 | 48.02848 | 16.20009 | 15954 ft | 376 kts | 270° |
| 2026-05-04 18:09 | 48.03044 | 16.12265 | 15959 ft | 372 kts | 270° |
| 2026-05-04 18:09 | 48.03233 | 16.04509 | 15963 ft | 372 kts | 270° |
| 2026-05-04 18:10 | 48.03325 | 16.00647 | 15955 ft | 372 kts | 270° |
| 2026-05-04 18:10 | 48.03416 | 15.96784 | 15963 ft | 372 kts | 270° |
| 2026-05-04 18:10 | 48.03506 | 15.92924 | 15951 ft | 371 kts | 270° |
| 2026-05-04 18:10 | 48.03594 | 15.89034 | 15951 ft | 371 kts | 270° |
| 2026-05-04 18:11 | 48.03681 | 15.85166 | 15935 ft | 371 kts | 270° |
| 2026-05-04 18:11 | 48.03766 | 15.81318 | 15943 ft | 371 kts | 270° |
| 2026-05-04 18:11 | 48.03850 | 15.77445 | 15938 ft | 371 kts | 270° |
| 2026-05-04 18:11 | 48.03932 | 15.73616 | 15930 ft | 371 kts | 270° |
| 2026-05-04 18:12 | 48.04013 | 15.69734 | 15929 ft | 371 kts | 270° |
| 2026-05-04 18:12 | 48.04093 | 15.65879 | 15936 ft | 371 kts | 270° |
| 2026-05-04 18:12 | 48.04171 | 15.62031 | 15939 ft | 372 kts | 270° |
| 2026-05-04 18:12 | 48.04247 | 15.58198 | 15943 ft | 372 kts | 271° |
| 2026-05-04 18:13 | 48.04324 | 15.54287 | 15953 ft | 372 kts | 271° |
| 2026-05-04 18:13 | 48.04399 | 15.50422 | 15955 ft | 371 kts | 271° |
| 2026-05-04 18:13 | 48.04545 | 15.42615 | 15952 ft | 371 kts | 271° |
| 2026-05-04 18:14 | 48.04616 | 15.38739 | 15948 ft | 371 kts | 271° |
| 2026-05-04 18:14 | 48.04682 | 15.34882 | 15945 ft | 371 kts | 270° |
| 2026-05-04 18:14 | 48.04745 | 15.31033 | 15948 ft | 371 kts | 270° |
| 2026-05-04 18:15 | 48.04869 | 15.23227 | 15944 ft | 371 kts | 270° |
| 2026-05-04 18:15 | 48.04987 | 15.15500 | 15914 ft | 370 kts | 270° |
| 2026-05-04 18:15 | 48.05044 | 15.11618 | 15918 ft | 371 kts | 270° |
| 2026-05-04 18:16 | 48.05099 | 15.07768 | 15902 ft | 371 kts | 270° |
| 2026-05-04 18:16 | 48.05153 | 15.03890 | 15893 ft | 371 kts | 270° |
| 2026-05-04 18:16 | 48.05206 | 15.00055 | 15904 ft | 372 kts | 270° |
| 2026-05-04 18:17 | 48.05308 | 14.92283 | 15895 ft | 372 kts | 270° |
| 2026-05-04 18:17 | 48.05357 | 14.88439 | 15894 ft | 371 kts | 270° |
| 2026-05-04 18:17 | 48.05444 | 14.80731 | 15893 ft | 371 kts | 270° |
| 2026-05-04 18:18 | 48.05476 | 14.76849 | 15899 ft | 371 kts | 270° |
| 2026-05-04 18:18 | 48.05508 | 14.72978 | 15894 ft | 370 kts | 270° |
| 2026-05-04 18:18 | 48.05538 | 14.69145 | 15901 ft | 370 kts | 270° |
| 2026-05-04 18:18 | 48.05566 | 14.65303 | 15897 ft | 370 kts | 270° |
| 2026-05-04 18:19 | 48.05619 | 14.57618 | 15895 ft | 370 kts | 270° |
| 2026-05-04 18:19 | 48.05645 | 14.53749 | 15894 ft | 370 kts | 270° |
| 2026-05-04 18:19 | 48.05668 | 14.49902 | 15897 ft | 370 kts | 270° |
| 2026-05-04 18:20 | 48.05690 | 14.46055 | 15892 ft | 370 kts | 270° |
| 2026-05-04 18:20 | 48.05711 | 14.42222 | 15888 ft | 370 kts | 270° |
| 2026-05-04 18:20 | 48.05731 | 14.38358 | 15888 ft | 370 kts | 270° |
| 2026-05-04 18:20 | 48.05750 | 14.34511 | 15889 ft | 370 kts | 269° |
| 2026-05-04 18:21 | 48.05766 | 14.30632 | 15883 ft | 370 kts | 269° |
| 2026-05-04 18:21 | 48.05783 | 14.26751 | 15885 ft | 370 kts | 269° |
| 2026-05-04 18:21 | 48.05797 | 14.22925 | 15891 ft | 370 kts | 269° |
| 2026-05-04 18:21 | 48.05810 | 14.19090 | 15886 ft | 369 kts | 269° |
| 2026-05-04 18:22 | 48.05823 | 14.15249 | 15891 ft | 369 kts | 269° |
| 2026-05-04 18:22 | 48.05834 | 14.11429 | 15888 ft | 369 kts | 269° |
| 2026-05-04 18:22 | 48.05843 | 14.07582 | 15883 ft | 369 kts | 269° |
| 2026-05-04 18:22 | 48.05852 | 14.03757 | 15881 ft | 369 kts | 269° |
| 2026-05-04 18:23 | 48.05859 | 13.99931 | 15890 ft | 369 kts | 269° |
| 2026-05-04 18:23 | 48.05865 | 13.96053 | 15887 ft | 369 kts | 269° |
| 2026-05-04 18:23 | 48.05869 | 13.92245 | 15886 ft | 369 kts | 269° |
| 2026-05-04 18:23 | 48.05873 | 13.88399 | 15886 ft | 369 kts | 269° |
| 2026-05-04 18:24 | 48.05875 | 13.84522 | 15665 ft | 372 kts | 269° |
| 2026-05-04 18:24 | 48.05876 | 13.80679 | 15207 ft | 368 kts | 269° |
| 2026-05-04 18:24 | 48.05876 | 13.76859 | 14750 ft | 364 kts | 269° |
| 2026-05-04 18:24 | 48.05874 | 13.73131 | 14281 ft | 361 kts | 269° |
| 2026-05-04 18:25 | 48.05872 | 13.69408 | 13813 ft | 356 kts | 269° |
| 2026-05-04 18:25 | 48.05868 | 13.65737 | 13353 ft | 348 kts | 269° |
| 2026-05-04 18:25 | 48.05864 | 13.62109 | 12894 ft | 340 kts | 269° |
| 2026-05-04 18:25 | 48.05859 | 13.58659 | 12455 ft | 330 kts | 269° |
| 2026-05-04 18:26 | 48.05850 | 13.55252 | 12023 ft | 317 kts | 268° |
| 2026-05-04 18:26 | 48.05691 | 13.52135 | 11906 ft | 293 kts | 262° |
| 2026-05-04 18:26 | 48.05435 | 13.49116 | 11924 ft | 294 kts | 262° |
| 2026-05-04 18:26 | 48.05178 | 13.46066 | 11894 ft | 289 kts | 262° |
| 2026-05-04 18:27 | 48.04931 | 13.43122 | 11534 ft | 286 kts | 262° |
| 2026-05-04 18:27 | 48.04682 | 13.40178 | 11009 ft | 288 kts | 262° |
| 2026-05-04 18:27 | 48.04432 | 13.37218 | 10520 ft | 288 kts | 263° |
| 2026-05-04 18:27 | 48.04194 | 13.34410 | 10084 ft | 288 kts | 262° |
| 2026-05-04 18:28 | 48.03939 | 13.31406 | 9632 ft | 286 kts | 262° |
| 2026-05-04 18:28 | 48.03689 | 13.28477 | 9196 ft | 284 kts | 262° |
| 2026-05-04 18:28 | 48.03440 | 13.25567 | 8748 ft | 283 kts | 262° |
| 2026-05-04 18:28 | 48.03188 | 13.22632 | 8316 ft | 280 kts | 262° |
| 2026-05-04 18:29 | 48.02940 | 13.19747 | 7856 ft | 279 kts | 262° |
| 2026-05-04 18:29 | 48.02692 | 13.16870 | 7417 ft | 277 kts | 262° |
| 2026-05-04 18:29 | 48.02446 | 13.14020 | 7049 ft | 273 kts | 262° |
| 2026-05-04 18:29 | 48.02202 | 13.11226 | 6716 ft | 274 kts | 262° |
| 2026-05-04 18:30 | 48.01702 | 13.05572 | 6001 ft | 272 kts | 263° |
| 2026-05-04 18:30 | 48.01453 | 13.02768 | 5647 ft | 272 kts | 263° |
| 2026-05-04 18:30 | 48.01202 | 12.99956 | 5309 ft | 270 kts | 263° |
| 2026-05-04 18:31 | 48.00954 | 12.97184 | 4983 ft | 268 kts | 262° |
| 2026-05-04 18:31 | 48.00663 | 12.94446 | 4616 ft | 263 kts | 254° |
| 2026-05-04 18:31 | 47.99858 | 12.92063 | 4194 ft | 254 kts | 232° |
| 2026-05-04 18:31 | 47.98588 | 12.90412 | 4044 ft | 230 kts | 206° |
| 2026-05-04 18:32 | 47.97153 | 12.89848 | 4065 ft | 201 kts | 181° |
| 2026-05-04 18:32 | 47.95785 | 12.90131 | 4053 ft | 197 kts | 163° |
| 2026-05-04 18:32 | 47.94499 | 12.90797 | 4036 ft | 194 kts | 157° |
| 2026-05-04 18:32 | 47.93245 | 12.91545 | 4014 ft | 194 kts | 156° |
| 2026-05-04 18:33 | 47.91996 | 12.92324 | 3799 ft | 194 kts | 155° |
| 2026-05-04 18:33 | 47.90758 | 12.93109 | 3571 ft | 192 kts | 155° |
| 2026-05-04 18:33 | 47.89537 | 12.93888 | 3321 ft | 191 kts | 154° |
| 2026-05-04 18:33 | 47.88363 | 12.94636 | 3087 ft | 190 kts | 154° |
| 2026-05-04 18:34 | 47.87139 | 12.95417 | 2847 ft | 186 kts | 155° |
| 2026-05-04 18:34 | 47.85991 | 12.96147 | 2618 ft | 171 kts | 155° |
| 2026-05-04 18:34 | 47.84970 | 12.96796 | 2397 ft | 148 kts | 155° |
| 2026-05-04 18:34 | 47.84018 | 12.97403 | 2235 ft | 147 kts | 155° |
| 2026-05-04 18:35 | 47.83118 | 12.97979 | 2039 ft | 138 kts | 155° |
| 2026-05-04 18:35 | 47.82237 | 12.98542 | 1858 ft | 135 kts | 155° |
| 2026-05-04 18:35 | 47.81364 | 12.99101 | 1672 ft | 142 kts | 155° |
| 2026-05-04 18:35 | 47.80501 | 12.99651 | 1492 ft | 130 kts | 155° |
| 2026-05-04 18:36 | 47.79697 | 13.00157 | 1419 ft | 116 kts | 155° |
| 2026-05-04 18:36 | 47.79225 | 13.00461 | 1419 ft | 25 kts | 158° |
| 2026-05-04 18:36 | 47.79130 | 13.00492 | 1419 ft | 8 kts | 219° |
| 2026-05-04 18:36 | 47.79118 | 13.00386 | 1418 ft | 13 kts | 277° |
| 2026-05-04 18:37 | 47.79125 | 13.00291 | 1418 ft | 4 kts | 275° |
| 2026-05-04 18:37 | 47.79145 | 13.00245 | 1418 ft | 7 kts | 332° |
| 2026-05-04 18:37 | 47.79210 | 13.00203 | 1418 ft | 12 kts | 336° |
| 2026-05-04 18:37 | 47.79294 | 13.00148 | 1418 ft | 13 kts | 337° |
| 2026-05-04 18:38 | 47.79373 | 13.00100 | 1418 ft | 9 kts | 338° |
| 2026-05-04 18:38 | 47.79436 | 13.00061 | 1418 ft | 10 kts | 336° |
| 2026-05-04 18:38 | 47.79509 | 13.00014 | 1418 ft | 12 kts | 336° |
| 2026-05-04 18:38 | 47.79557 | 12.99972 | 1418 ft | 6 kts | 298° |
| 2026-05-04 18:39 | 47.79550 | 12.99904 | 1418 ft | 8 kts | 246° |
| 2026-05-04 18:39 | 47.79548 | 12.99846 | 1418 ft | 3 kts | 341° |
| 2026-05-04 18:39 | 47.79573 | 12.99868 | 1418 ft | 3 kts | 14° |
| 2026-05-04 18:39 | 47.79586 | 12.99873 | 1418 ft | 0 kts | 13° |
| 2026-05-04 18:40 | 47.79592 | 12.99875 | 1418 ft | 0 kts | 14° |